createdAt,value
2023-03-26T00:01:21.964Z,4.54
2023-03-26T00:03:53.875Z,4.51
2023-03-26T00:06:23.926Z,4.50
2023-03-26T00:08:54.172Z,4.52
2023-03-26T00:11:23.167Z,4.47
2023-03-26T00:13:53.840Z,4.51
2023-03-26T00:16:22.323Z,4.47
2023-03-26T00:18:51.909Z,4.51
2023-03-26T00:21:22.034Z,4.52
2023-03-26T00:23:50.506Z,4.47
2023-03-26T00:26:20.241Z,4.47
2023-03-26T00:28:51.043Z,4.46
2023-03-26T00:31:19.510Z,4.43
2023-03-26T00:33:47.969Z,4.46
2023-03-26T00:36:17.694Z,4.43
2023-03-26T00:38:48.211Z,4.38
2023-03-26T00:41:25.745Z,4.38
2023-03-26T00:43:56.774Z,4.34
2023-03-26T00:46:25.626Z,4.36
2023-03-26T00:48:53.965Z,4.44
2023-03-26T00:51:22.854Z,4.50
2023-03-26T00:53:51.762Z,4.55
2023-03-26T00:56:20.475Z,4.43
2023-03-26T00:58:50.377Z,4.42
2023-03-26T01:01:27.679Z,4.39
2023-03-26T01:04:07.541Z,4.37
2023-03-26T01:06:38.924Z,4.32
2023-03-26T01:09:13.887Z,4.31
2023-03-26T01:11:42.276Z,4.30
2023-03-26T01:14:12.096Z,4.31
2023-03-26T01:16:45.237Z,4.29
2023-03-26T01:19:16.663Z,4.30
2023-03-26T01:21:45.000Z,4.34
2023-03-26T01:24:14.638Z,4.36
2023-03-26T01:26:54.269Z,4.37
2023-03-26T01:29:25.429Z,4.36
2023-03-26T01:31:58.249Z,4.37
2023-03-26T01:34:34.143Z,4.41
2023-03-26T01:37:13.496Z,4.40
2023-03-26T01:39:53.493Z,4.41
2023-03-26T01:42:27.367Z,4.41
2023-03-26T01:44:58.383Z,4.43
2023-03-26T01:47:27.137Z,4.49
2023-03-26T01:49:55.455Z,4.51
2023-03-26T01:52:26.335Z,4.49
2023-03-26T01:54:57.764Z,4.48
2023-03-26T01:57:31.210Z,4.49
2023-03-26T02:00:07.409Z,4.47
2023-03-26T02:02:46.284Z,4.50
2023-03-26T02:05:17.533Z,4.45
2023-03-26T02:07:51.352Z,4.47
2023-03-26T02:10:23.456Z,4.45
2023-03-26T02:12:51.903Z,4.49
2023-03-26T02:15:20.285Z,4.49
2023-03-26T02:17:49.479Z,4.47
2023-03-26T02:20:19.105Z,4.44
2023-03-26T02:22:47.882Z,4.45
2023-03-26T02:25:20.410Z,4.42
2023-03-26T02:27:52.206Z,4.40
2023-03-26T02:30:25.874Z,4.37
2023-03-26T02:32:59.534Z,4.40
2023-03-26T02:35:35.050Z,4.34
2023-03-26T02:38:04.604Z,4.36
2023-03-26T02:40:33.221Z,4.37
2023-03-26T02:43:03.205Z,4.37
2023-03-26T02:45:33.274Z,4.35
2023-03-26T02:48:20.476Z,4.37
2023-03-26T02:51:09.888Z,4.37
2023-03-26T02:54:01.340Z,4.35
2023-03-26T02:56:35.589Z,4.34
2023-03-26T02:59:19.816Z,4.32
2023-03-26T03:01:53.757Z,4.35
2023-03-26T03:04:23.420Z,4.32
2023-03-26T03:06:53.219Z,4.33
2023-03-26T03:09:22.561Z,4.35
2023-03-26T03:12:14.146Z,4.34
2023-03-26T03:14:44.012Z,4.37
2023-03-26T03:17:12.606Z,4.36
2023-03-26T03:19:43.832Z,4.36
2023-03-26T03:22:12.289Z,4.33
2023-03-26T03:24:43.985Z,4.29
2023-03-26T03:27:12.867Z,4.28
2023-03-26T03:29:53.947Z,4.25
2023-03-26T03:32:54.186Z,4.26
2023-03-26T03:35:25.393Z,4.25
2023-03-26T03:37:58.070Z,4.26
2023-03-26T03:40:26.786Z,4.26
2023-03-26T03:42:55.568Z,4.24
2023-03-26T03:45:34.426Z,4.24
2023-03-26T03:48:13.872Z,4.27
2023-03-26T03:50:46.171Z,4.24
2023-03-26T03:53:29.693Z,4.23
2023-03-26T03:56:02.330Z,4.23
2023-03-26T03:58:53.812Z,4.21
2023-03-26T04:01:33.114Z,4.22
2023-03-26T04:04:07.366Z,4.22
2023-03-26T04:06:57.329Z,4.23
2023-03-26T04:09:28.170Z,4.24
2023-03-26T04:12:00.753Z,4.21
2023-03-26T04:14:43.669Z,4.22
2023-03-26T04:17:26.162Z,4.21
2023-03-26T04:19:57.418Z,4.20
2023-03-26T04:22:34.922Z,4.17
2023-03-26T04:25:06.007Z,4.20
2023-03-26T04:27:44.862Z,4.18
2023-03-26T04:30:22.083Z,4.16
2023-03-26T04:33:01.109Z,4.16
2023-03-26T04:35:35.821Z,4.15
2023-03-26T04:38:06.673Z,4.15
2023-03-26T04:40:40.824Z,4.14
2023-03-26T04:43:20.550Z,4.17
2023-03-26T04:46:10.807Z,4.21
2023-03-26T04:48:49.446Z,4.24
2023-03-26T04:51:18.905Z,4.25
2023-03-26T04:53:52.410Z,4.27
2023-03-26T04:56:39.648Z,4.27
2023-03-26T04:59:09.025Z,4.26
2023-03-26T05:01:41.995Z,4.30
2023-03-26T05:04:14.485Z,4.31
2023-03-26T05:06:43.844Z,4.34
2023-03-26T05:09:22.347Z,4.38
2023-03-26T05:12:26.031Z,4.35
2023-03-26T05:15:00.284Z,4.31
2023-03-26T05:17:51.810Z,4.33
2023-03-26T05:20:57.774Z,4.32
2023-03-26T05:23:28.022Z,4.33
2023-03-26T05:26:10.506Z,4.37
2023-03-26T05:28:39.087Z,4.38
2023-03-26T05:31:15.733Z,4.41
2023-03-26T05:33:47.765Z,4.44
2023-03-26T05:36:19.326Z,4.49
2023-03-26T05:38:52.645Z,4.53
2023-03-26T05:41:39.605Z,4.59
2023-03-26T05:44:08.651Z,4.64
2023-03-26T05:46:37.154Z,4.69
2023-03-26T05:49:05.794Z,4.71
2023-03-26T05:51:38.475Z,4.71
2023-03-26T05:54:39.032Z,4.74
2023-03-26T05:57:28.540Z,4.74
2023-03-26T06:00:24.488Z,4.79
2023-03-26T06:02:56.426Z,4.82
2023-03-26T06:05:44.390Z,4.83
2023-03-26T06:08:37.049Z,4.85
2023-03-26T06:11:08.365Z,4.87
2023-03-26T06:13:40.132Z,4.86
2023-03-26T06:16:09.559Z,4.87
2023-03-26T06:19:08.350Z,4.87
2023-03-26T06:21:57.397Z,4.86
2023-03-26T06:24:46.267Z,4.88
2023-03-26T06:27:25.356Z,4.89
2023-03-26T06:30:32.311Z,4.96
2023-03-26T06:33:07.167Z,5.00
2023-03-26T06:35:44.491Z,5.07
2023-03-26T06:38:14.142Z,5.11
2023-03-26T06:40:44.052Z,5.19
2023-03-26T06:43:27.461Z,5.24
2023-03-26T06:46:14.711Z,5.27
2023-03-26T06:49:01.559Z,5.26
2023-03-26T06:51:48.779Z,5.28
2023-03-26T06:54:36.984Z,5.26
2023-03-26T06:57:16.552Z,5.30
2023-03-26T07:00:05.552Z,5.36
2023-03-26T07:02:52.613Z,5.38
2023-03-26T07:05:39.849Z,5.44
2023-03-26T07:08:31.736Z,5.49
2023-03-26T07:11:21.011Z,5.58
2023-03-26T07:14:09.869Z,5.62
2023-03-26T07:17:04.401Z,5.64
2023-03-26T07:19:54.911Z,5.56
2023-03-26T07:22:27.503Z,5.58
2023-03-26T07:25:08.612Z,5.60
2023-03-26T07:28:02.052Z,5.54
2023-03-26T07:31:09.404Z,5.53
2023-03-26T07:33:49.946Z,5.52
2023-03-26T07:36:30.288Z,5.50
2023-03-26T07:39:20.557Z,5.51
2023-03-26T07:42:25.664Z,5.59
2023-03-26T07:45:18.712Z,5.64
2023-03-26T07:48:05.125Z,5.62
2023-03-26T07:51:00.420Z,5.60
2023-03-26T07:53:49.476Z,5.60
2023-03-26T07:56:39.635Z,5.62
2023-03-26T07:59:24.610Z,5.66
2023-03-26T08:02:26.268Z,5.65
2023-03-26T08:05:18.895Z,5.73
2023-03-26T08:08:26.161Z,5.84
2023-03-26T08:11:23.782Z,5.95
2023-03-26T08:14:02.122Z,6.03
2023-03-26T08:16:33.401Z,6.00
2023-03-26T08:19:06.276Z,6.07
2023-03-26T08:21:38.375Z,6.13
2023-03-26T08:24:11.157Z,6.25
2023-03-26T08:26:47.857Z,6.19
2023-03-26T08:29:21.821Z,6.16
2023-03-26T08:31:50.487Z,6.27
2023-03-26T08:34:19.084Z,6.28
2023-03-26T08:36:49.027Z,6.23
2023-03-26T08:39:17.238Z,6.31
2023-03-26T08:42:02.348Z,6.43
2023-03-26T08:44:49.111Z,6.46
2023-03-26T08:47:38.368Z,6.44
2023-03-26T08:50:15.726Z,6.46
2023-03-26T08:52:59.353Z,6.51
2023-03-26T08:55:41.511Z,6.55
2023-03-26T08:58:24.950Z,6.56
2023-03-26T09:01:11.068Z,6.62
2023-03-26T09:04:09.137Z,6.79
2023-03-26T09:06:55.154Z,7.00
2023-03-26T09:09:56.733Z,7.03
2023-03-26T09:12:51.655Z,7.07
2023-03-26T09:15:37.666Z,7.09
2023-03-26T09:18:31.598Z,7.17
2023-03-26T09:21:13.871Z,7.22
2023-03-26T09:23:52.833Z,7.28
2023-03-26T09:26:28.207Z,7.44
2023-03-26T09:29:11.701Z,7.47
2023-03-26T09:31:59.719Z,7.55
2023-03-26T09:34:31.373Z,7.67
2023-03-26T09:37:12.539Z,7.61
2023-03-26T09:39:48.347Z,7.71
2023-03-26T09:42:19.591Z,7.59
2023-03-26T09:44:59.304Z,7.63
2023-03-26T09:47:43.901Z,7.79
2023-03-26T09:50:27.043Z,7.60
2023-03-26T09:53:08.658Z,7.51
2023-03-26T09:55:56.793Z,7.34
2023-03-26T09:58:34.704Z,7.25
2023-03-26T10:01:09.074Z,7.27
2023-03-26T10:03:46.888Z,7.27
2023-03-26T10:06:31.687Z,7.36
2023-03-26T10:09:09.048Z,7.42
2023-03-26T10:11:43.446Z,7.41
2023-03-26T10:14:20.306Z,7.39
2023-03-26T10:16:55.876Z,7.41
2023-03-26T10:19:37.310Z,7.39
2023-03-26T10:22:12.665Z,7.44
2023-03-26T10:24:48.644Z,7.45
2023-03-26T10:27:24.318Z,7.49
2023-03-26T10:30:07.999Z,7.52
2023-03-26T10:32:40.088Z,7.60
2023-03-26T10:35:14.155Z,7.49
2023-03-26T10:37:51.907Z,7.42
2023-03-26T10:40:24.974Z,7.40
2023-03-26T10:43:12.573Z,7.44
2023-03-26T10:45:55.977Z,7.45
2023-03-26T10:48:45.168Z,7.41
2023-03-26T10:51:31.807Z,7.45
2023-03-26T10:54:02.248Z,7.42
2023-03-26T10:56:36.200Z,7.31
2023-03-26T10:59:07.455Z,7.09
2023-03-26T11:01:42.070Z,6.94
2023-03-26T11:04:20.201Z,6.81
2023-03-26T11:06:55.612Z,6.74
2023-03-26T11:09:30.000Z,6.80
2023-03-26T11:12:26.494Z,6.95
2023-03-26T11:14:56.382Z,7.06
2023-03-26T11:17:40.708Z,7.06
2023-03-26T11:20:13.444Z,7.10
2023-03-26T11:22:51.754Z,7.19
2023-03-26T11:25:29.267Z,7.25
2023-03-26T11:28:06.066Z,7.40
2023-03-26T11:30:41.428Z,7.53
2023-03-26T11:33:12.741Z,7.79
2023-03-26T11:35:43.936Z,7.82
2023-03-26T11:38:14.971Z,7.68
2023-03-26T11:40:49.171Z,7.62
2023-03-26T11:43:29.441Z,7.71
2023-03-26T11:45:59.228Z,7.73
2023-03-26T11:48:30.637Z,7.76
2023-03-26T11:51:02.084Z,7.88
2023-03-26T11:53:32.375Z,7.82
2023-03-26T11:56:04.300Z,7.79
2023-03-26T11:58:36.626Z,7.90
2023-03-26T12:01:06.975Z,8.01
2023-03-26T12:03:35.388Z,8.03
2023-03-26T12:06:04.217Z,8.10
2023-03-26T12:08:34.676Z,8.17
2023-03-26T12:11:09.190Z,8.26
2023-03-26T12:13:42.082Z,8.24
2023-03-26T12:16:15.546Z,8.38
2023-03-26T12:18:44.915Z,8.25
2023-03-26T12:21:14.219Z,8.00
2023-03-26T12:23:52.714Z,8.06
2023-03-26T12:26:22.239Z,8.04
2023-03-26T12:28:52.838Z,8.18
2023-03-26T12:31:21.352Z,8.26
2023-03-26T12:34:04.394Z,8.33
2023-03-26T12:36:34.305Z,8.43
2023-03-26T12:40:07.643Z,8.44
2023-03-26T12:42:26.523Z,8.62
2023-03-26T12:45:16.410Z,8.65
2023-03-26T12:47:57.927Z,8.65
2023-03-26T12:50:35.702Z,8.58
2023-03-26T12:53:21.882Z,8.46
2023-03-26T12:55:57.361Z,8.48
2023-03-26T12:58:38.350Z,8.25
2023-03-26T13:01:16.176Z,8.09
2023-03-26T13:03:48.147Z,7.81
2023-03-26T13:06:24.046Z,7.60
2023-03-26T13:09:08.004Z,7.27
2023-03-26T13:11:40.141Z,7.26
2023-03-26T13:14:15.808Z,7.13
2023-03-26T13:16:50.286Z,6.87
2023-03-26T13:19:22.279Z,6.65
2023-03-26T13:21:57.959Z,6.56
2023-03-26T13:24:31.686Z,6.62
2023-03-26T13:27:06.945Z,6.58
2023-03-26T13:29:39.999Z,6.74
2023-03-26T13:32:14.262Z,6.71
2023-03-26T13:34:48.430Z,6.80
2023-03-26T13:37:21.507Z,6.90
2023-03-26T13:39:56.841Z,6.99
2023-03-26T13:42:33.940Z,6.85
2023-03-26T13:45:05.895Z,6.87
2023-03-26T13:47:38.293Z,6.76
2023-03-26T13:50:10.142Z,6.71
2023-03-26T13:52:41.277Z,6.57
2023-03-26T13:55:20.169Z,6.60
2023-03-26T13:57:51.677Z,6.62
2023-03-26T14:00:22.506Z,6.65
2023-03-26T14:02:58.025Z,6.69
2023-03-26T14:05:31.368Z,6.76
2023-03-26T14:08:03.297Z,6.85
2023-03-26T14:10:34.558Z,6.92
2023-03-26T14:13:06.310Z,6.87
2023-03-26T14:15:38.502Z,6.79
2023-03-26T14:18:25.083Z,6.74
2023-03-26T14:21:02.150Z,6.72
2023-03-26T14:23:40.460Z,6.72
2023-03-26T14:26:15.756Z,6.76
2023-03-26T14:28:58.868Z,6.69
2023-03-26T14:31:30.835Z,6.73
2023-03-26T14:34:13.058Z,6.76
2023-03-26T14:36:53.172Z,6.88
2023-03-26T14:39:32.819Z,7.12
2023-03-26T14:42:03.570Z,7.16
2023-03-26T14:44:47.971Z,7.26
2023-03-26T14:47:18.704Z,7.16
2023-03-26T14:50:06.705Z,7.15
2023-03-26T14:52:38.679Z,7.03
2023-03-26T14:55:14.269Z,7.14
2023-03-26T14:58:00.468Z,7.10
2023-03-26T15:00:47.301Z,6.99
2023-03-26T15:03:34.880Z,7.06
2023-03-26T15:06:19.866Z,7.19
2023-03-26T15:09:07.026Z,7.05
2023-03-26T15:11:41.350Z,6.99
2023-03-26T15:14:24.473Z,7.02
2023-03-26T15:17:13.729Z,6.97
2023-03-26T15:20:00.383Z,7.07
2023-03-26T15:22:46.523Z,7.12
2023-03-26T15:25:29.806Z,7.00
2023-03-26T15:28:16.670Z,6.88
2023-03-26T15:31:10.334Z,6.79
2023-03-26T15:33:59.408Z,6.76
2023-03-26T15:36:51.060Z,6.75
2023-03-26T15:39:59.226Z,6.72
2023-03-26T15:42:32.956Z,6.71
2023-03-26T15:45:14.487Z,6.71
2023-03-26T15:47:50.748Z,6.73
2023-03-26T15:50:46.656Z,6.71
2023-03-26T15:53:23.894Z,6.68
2023-03-26T15:56:04.592Z,6.65
2023-03-26T15:58:38.363Z,6.61
2023-03-26T16:01:19.367Z,6.57
2023-03-26T16:03:53.493Z,6.57
2023-03-26T16:06:28.121Z,6.64
2023-03-26T16:09:08.166Z,6.74
2023-03-26T16:11:50.844Z,6.81
2023-03-26T16:14:23.187Z,6.75
2023-03-26T16:16:58.842Z,6.64
2023-03-26T16:19:36.417Z,6.65
2023-03-26T16:22:06.255Z,6.58
2023-03-26T16:24:35.373Z,6.54
2023-03-26T16:27:10.791Z,6.56
2023-03-26T16:29:54.201Z,6.45
2023-03-26T16:32:26.311Z,6.38
2023-03-26T16:34:56.774Z,6.20
2023-03-26T16:37:38.747Z,6.01
2023-03-26T16:40:25.809Z,6.03
2023-03-26T16:42:56.553Z,5.99
2023-03-26T16:45:30.032Z,5.96
2023-03-26T16:48:03.876Z,5.85
2023-03-26T16:50:42.773Z,5.73
2023-03-26T16:53:23.293Z,5.71
2023-03-26T16:55:57.106Z,5.76
2023-03-26T16:58:31.187Z,5.64
2023-03-26T17:01:08.275Z,5.53
2023-03-26T17:03:54.737Z,5.45
2023-03-26T17:06:48.047Z,5.41
2023-03-26T17:09:23.701Z,5.61
2023-03-26T17:11:58.121Z,5.78
2023-03-26T17:14:32.418Z,5.76
2023-03-26T17:17:19.259Z,5.72
2023-03-26T17:19:51.924Z,5.80
2023-03-26T17:22:28.168Z,5.73
2023-03-26T17:25:03.262Z,5.75
2023-03-26T17:28:19.900Z,5.58
2023-03-26T17:30:58.578Z,5.72
2023-03-26T17:33:29.672Z,5.73
2023-03-26T17:36:21.797Z,5.88
2023-03-26T17:39:01.060Z,5.81
2023-03-26T17:41:47.817Z,5.94
2023-03-26T17:44:35.080Z,6.00
2023-03-26T17:47:03.865Z,6.12
2023-03-26T17:49:33.596Z,6.22
2023-03-26T17:52:04.414Z,6.23
2023-03-26T17:54:35.462Z,6.32
2023-03-26T17:57:06.330Z,6.35
2023-03-26T17:59:36.776Z,6.36
2023-03-26T18:02:13.685Z,6.32
2023-03-26T18:04:45.991Z,6.33
2023-03-26T18:07:25.346Z,6.18
2023-03-26T18:10:03.608Z,6.10
2023-03-26T18:12:41.060Z,5.97
2023-03-26T18:15:14.922Z,6.07
2023-03-26T18:17:45.388Z,6.00
2023-03-26T18:20:21.278Z,5.93
2023-03-26T18:22:49.878Z,5.48
2023-03-26T18:25:25.435Z,5.15
2023-03-26T18:27:53.808Z,5.14
2023-03-26T18:30:23.666Z,5.30
2023-03-26T18:33:00.125Z,5.05
2023-03-26T18:35:29.511Z,5.13
2023-03-26T18:38:00.307Z,5.40
2023-03-26T18:40:34.140Z,5.52
2023-03-26T18:43:02.453Z,5.59
2023-03-26T18:45:32.895Z,5.62
2023-03-26T18:48:02.458Z,5.70
2023-03-26T18:50:34.994Z,5.74
2023-03-26T18:53:03.900Z,5.74
2023-03-26T18:55:39.561Z,5.66
2023-03-26T18:58:21.622Z,5.46
2023-03-26T19:00:53.045Z,5.21
2023-03-26T19:03:24.397Z,5.08
2023-03-26T19:05:53.569Z,5.05
2023-03-26T19:08:24.071Z,4.92
2023-03-26T19:10:54.662Z,4.85
2023-03-26T19:13:23.722Z,4.81
2023-03-26T19:15:53.327Z,4.81
2023-03-26T19:18:23.700Z,4.87
2023-03-26T19:20:52.959Z,4.94
2023-03-26T19:23:22.666Z,4.81
2023-03-26T19:25:52.848Z,5.02
2023-03-26T19:28:23.969Z,5.22
2023-03-26T19:30:54.488Z,5.10
2023-03-26T19:33:23.821Z,5.35
2023-03-26T19:35:56.639Z,5.30
2023-03-26T19:38:26.221Z,5.27
2023-03-26T19:40:56.092Z,5.18
2023-03-26T19:43:27.091Z,5.07
2023-03-26T19:46:00.544Z,5.22
2023-03-26T19:48:45.388Z,5.28
2023-03-26T19:51:21.505Z,5.36
2023-03-26T19:53:51.840Z,5.20
2023-03-26T19:56:20.996Z,5.45
2023-03-26T19:58:50.937Z,5.44
2023-03-26T20:01:20.213Z,5.52
2023-03-26T20:03:50.320Z,5.57
2023-03-26T20:06:21.003Z,5.58
2023-03-26T20:08:53.322Z,5.65
2023-03-26T20:11:22.662Z,5.72
2023-03-26T20:13:52.620Z,5.78
2023-03-26T20:16:24.556Z,5.76
2023-03-26T20:18:53.019Z,5.61
2023-03-26T20:21:21.279Z,5.32
2023-03-26T20:23:49.731Z,5.42
2023-03-26T20:26:20.379Z,5.45
2023-03-26T20:28:53.175Z,5.47
2023-03-26T20:31:25.399Z,5.55
2023-03-26T20:33:54.697Z,5.58
2023-03-26T20:36:34.147Z,5.53
2023-03-26T20:39:06.157Z,5.67
2023-03-26T20:41:35.997Z,5.47
2023-03-26T20:44:06.142Z,5.03
2023-03-26T20:46:35.859Z,5.19
2023-03-26T20:49:04.229Z,5.22
2023-03-26T20:51:32.483Z,5.21
2023-03-26T20:54:01.083Z,5.31
2023-03-26T20:56:29.640Z,5.23
2023-03-26T21:01:29.628Z,5.11
2023-03-26T21:03:59.504Z,5.02
2023-03-26T21:06:27.949Z,5.16
2023-03-26T21:08:56.382Z,5.13
2023-03-26T21:11:27.597Z,5.23
2023-03-26T21:13:59.456Z,5.27
2023-03-26T21:16:28.268Z,5.37
2023-03-26T21:18:56.959Z,5.37
2023-03-26T21:21:36.439Z,5.25
2023-03-26T21:24:10.808Z,5.20
2023-03-26T21:26:44.226Z,5.25
2023-03-26T21:29:13.270Z,5.32
2023-03-26T21:31:41.920Z,5.28
2023-03-26T21:34:13.507Z,5.12
2023-03-26T21:36:47.245Z,4.95
2023-03-26T21:39:16.778Z,4.99
2023-03-26T21:41:48.541Z,4.82
2023-03-26T21:44:34.604Z,4.89
2023-03-26T21:47:03.680Z,5.05
2023-03-26T21:49:32.402Z,5.04
2023-03-26T21:52:02.647Z,5.12
2023-03-26T21:54:32.151Z,5.21
2023-03-26T21:57:08.334Z,5.05
2023-03-26T21:59:41.433Z,5.13
2023-03-26T22:02:14.634Z,5.02
2023-03-26T22:04:47.385Z,4.68
2023-03-26T22:07:19.481Z,4.71
2023-03-26T22:09:48.264Z,4.42
2023-03-26T22:12:17.022Z,4.45
2023-03-26T22:14:45.526Z,4.39
2023-03-26T22:17:13.953Z,4.32
2023-03-26T22:19:42.666Z,4.30
2023-03-26T22:22:11.549Z,4.33
2023-03-26T22:24:41.452Z,4.43
2023-03-26T22:27:09.907Z,4.53
2023-03-26T22:29:41.348Z,4.53
2023-03-26T22:32:09.795Z,4.53
2023-03-26T22:34:38.934Z,4.44
2023-03-26T22:37:07.381Z,4.37
2023-03-26T22:39:36.312Z,4.40
2023-03-26T22:42:06.198Z,4.33
2023-03-26T22:44:34.668Z,4.33
2023-03-26T22:47:03.169Z,4.36
2023-03-26T22:49:31.602Z,4.36
2023-03-26T22:51:59.978Z,4.29
2023-03-26T22:54:28.635Z,4.22
2023-03-26T22:56:57.124Z,4.36
2023-03-26T22:59:27.270Z,4.41
2023-03-26T23:01:55.997Z,4.29
2023-03-26T23:04:31.219Z,4.30
2023-03-26T23:07:00.274Z,4.43
2023-03-26T23:09:28.567Z,4.50
2023-03-26T23:11:57.029Z,4.59
2023-03-26T23:14:26.944Z,4.12
2023-03-26T23:16:55.316Z,3.88
2023-03-26T23:19:23.543Z,3.53
2023-03-26T23:21:52.593Z,3.46
2023-03-26T23:24:20.872Z,3.46
2023-03-26T23:26:51.035Z,3.44
2023-03-26T23:29:19.786Z,3.43
2023-03-26T23:31:49.706Z,3.44
2023-03-26T23:34:18.718Z,3.47
2023-03-26T23:36:47.409Z,3.47
2023-03-26T23:39:16.082Z,3.51
2023-03-26T23:41:44.332Z,3.64
2023-03-26T23:44:14.693Z,3.65
2023-03-26T23:46:43.075Z,3.76
2023-03-26T23:49:13.874Z,3.72
2023-03-26T23:51:42.340Z,3.72
2023-03-26T23:54:11.793Z,3.26
2023-03-26T23:56:40.147Z,2.81
2023-03-26T23:59:08.636Z,2.44
